createdAt,value
2022-09-15T00:00:03.694Z,16.68
2022-09-15T00:01:03.668Z,16.68
2022-09-15T00:02:03.846Z,16.71
2022-09-15T00:03:03.718Z,16.71
2022-09-15T00:04:03.643Z,16.71
2022-09-15T00:05:03.617Z,16.74
2022-09-15T00:06:03.616Z,16.75
2022-09-15T00:07:03.611Z,16.74
2022-09-15T00:08:03.586Z,16.77
2022-09-15T00:09:03.579Z,16.77
2022-09-15T00:10:03.560Z,16.78
2022-09-15T00:11:03.547Z,16.78
2022-09-15T00:12:03.549Z,16.80
2022-09-15T00:13:03.538Z,16.77
2022-09-15T00:14:03.508Z,16.77
2022-09-15T00:15:03.497Z,16.77
2022-09-15T00:16:03.491Z,16.77
2022-09-15T00:17:03.547Z,16.78
2022-09-15T00:18:03.448Z,16.78
2022-09-15T00:19:03.441Z,16.77
2022-09-15T00:20:03.437Z,16.75
2022-09-15T00:21:03.409Z,16.75
2022-09-15T00:22:03.419Z,16.74
2022-09-15T00:23:03.379Z,16.74
2022-09-15T00:24:03.371Z,16.75
2022-09-15T00:25:03.362Z,16.77
2022-09-15T00:26:03.362Z,16.74
2022-09-15T00:27:03.341Z,16.77
2022-09-15T00:28:03.322Z,16.75
2022-09-15T00:29:03.311Z,16.75
2022-09-15T00:30:03.305Z,16.77
2022-09-15T00:31:03.327Z,16.75
2022-09-15T00:32:03.293Z,16.75
2022-09-15T00:33:03.251Z,16.75
2022-09-15T00:34:03.260Z,16.77
2022-09-15T00:35:04.240Z,16.77
2022-09-15T00:36:03.232Z,16.77
2022-09-15T00:37:03.214Z,16.77
2022-09-15T00:38:03.203Z,16.77
2022-09-15T00:39:03.173Z,16.77
2022-09-15T00:40:03.222Z,16.78
2022-09-15T00:41:03.153Z,16.78
2022-09-15T00:42:03.164Z,16.77
2022-09-15T00:43:03.122Z,16.77
2022-09-15T00:44:03.125Z,16.78
2022-09-15T00:45:03.095Z,16.77
2022-09-15T00:46:03.155Z,16.77
2022-09-15T00:47:18.795Z,16.75
2022-09-15T00:48:04.078Z,16.75
2022-09-15T00:49:03.061Z,16.75
2022-09-15T00:50:03.057Z,16.75
2022-09-15T00:51:03.039Z,16.75
2022-09-15T00:52:03.039Z,16.77
2022-09-15T00:53:02.995Z,16.77
2022-09-15T00:54:03.018Z,16.75
2022-09-15T00:55:02.967Z,16.77
2022-09-15T00:56:02.947Z,16.75
2022-09-15T00:57:02.946Z,16.75
2022-09-15T00:58:02.925Z,16.77
2022-09-15T00:59:02.925Z,16.77
2022-09-15T01:00:02.897Z,16.78
2022-09-15T01:01:02.949Z,16.78
2022-09-15T01:02:03.025Z,16.78
2022-09-15T01:03:02.857Z,16.80
2022-09-15T01:04:02.859Z,16.80
2022-09-15T01:05:02.838Z,16.80
2022-09-15T01:06:02.821Z,16.83
2022-09-15T01:07:02.809Z,16.83
2022-09-15T01:08:02.799Z,16.81
2022-09-15T01:09:02.789Z,16.81
2022-09-15T01:10:02.787Z,16.81
2022-09-15T01:11:02.759Z,16.83
2022-09-15T01:12:02.763Z,16.83
2022-09-15T01:13:02.730Z,16.83
2022-09-15T01:14:02.720Z,16.86
2022-09-15T01:15:02.711Z,16.85
2022-09-15T01:16:02.752Z,16.86
2022-09-15T01:17:02.698Z,16.88
2022-09-15T01:18:02.654Z,16.88
2022-09-15T01:19:02.651Z,16.89
2022-09-15T01:20:02.640Z,16.89
2022-09-15T01:21:02.637Z,16.89
2022-09-15T01:22:02.624Z,16.90
2022-09-15T01:23:02.599Z,16.90
2022-09-15T01:24:02.588Z,16.93
2022-09-15T01:25:02.573Z,16.95
2022-09-15T01:26:02.573Z,16.95
2022-09-15T01:27:13.873Z,16.95
2022-09-15T01:28:03.543Z,16.95
2022-09-15T01:29:02.513Z,16.96
2022-09-15T01:30:02.513Z,16.96
2022-09-15T01:31:02.513Z,16.96
2022-09-15T01:32:02.545Z,16.98
2022-09-15T01:33:02.464Z,16.98
2022-09-15T01:34:02.453Z,16.98
2022-09-15T01:35:02.452Z,16.99
2022-09-15T01:36:02.429Z,16.99
2022-09-15T01:37:02.424Z,17.00
2022-09-15T01:38:02.403Z,17.00
2022-09-15T01:39:02.411Z,17.03
2022-09-15T01:40:02.434Z,17.03
2022-09-15T01:41:02.364Z,17.04
2022-09-15T01:42:02.375Z,17.06
2022-09-15T01:43:02.359Z,17.06
2022-09-15T01:44:02.317Z,17.06
2022-09-15T01:45:02.328Z,17.06
2022-09-15T01:46:02.361Z,17.07
2022-09-15T01:47:02.299Z,17.07
2022-09-15T01:48:02.266Z,17.07
2022-09-15T01:49:02.271Z,17.07
2022-09-15T01:50:02.244Z,17.07
2022-09-15T01:51:02.245Z,17.06
2022-09-15T01:52:02.227Z,17.06
2022-09-15T01:53:02.230Z,17.08
2022-09-15T01:54:02.194Z,17.08
2022-09-15T01:55:02.178Z,17.08
2022-09-15T01:56:02.178Z,17.10
2022-09-15T01:57:02.168Z,17.08
2022-09-15T01:58:02.138Z,17.10
2022-09-15T01:59:02.138Z,17.10
2022-09-15T02:00:02.100Z,17.08
2022-09-15T02:01:02.202Z,17.10
2022-09-15T02:02:02.148Z,17.10
2022-09-15T02:03:02.070Z,17.10
2022-09-15T02:04:02.051Z,17.10
2022-09-15T02:05:02.050Z,17.10
2022-09-15T02:06:02.040Z,17.10
2022-09-15T02:07:02.043Z,17.10
2022-09-15T02:08:02.012Z,17.10
2022-09-15T02:09:02.001Z,17.08
2022-09-15T02:10:01.984Z,17.08
2022-09-15T02:11:01.962Z,17.08
2022-09-15T02:12:01.971Z,17.07
2022-09-15T02:13:01.952Z,17.07
2022-09-15T02:14:01.934Z,17.07
2022-09-15T02:15:01.931Z,17.08
2022-09-15T02:16:01.917Z,17.08
2022-09-15T02:17:01.903Z,17.11
2022-09-15T02:18:01.935Z,17.10
2022-09-15T02:19:01.863Z,17.11
2022-09-15T02:20:01.847Z,17.11
2022-09-15T02:21:01.828Z,17.10
2022-09-15T02:22:01.832Z,17.08
2022-09-15T02:23:01.819Z,17.08
2022-09-15T02:24:01.795Z,17.10
2022-09-15T02:25:01.882Z,17.11
2022-09-15T02:26:01.790Z,17.11
2022-09-15T02:27:01.775Z,17.08
2022-09-15T02:28:01.799Z,17.10
2022-09-15T02:29:01.726Z,17.11
2022-09-15T02:30:01.817Z,17.11
2022-09-15T02:31:01.727Z,17.13
2022-09-15T02:32:06.759Z,17.13
2022-09-15T02:33:03.699Z,17.14
2022-09-15T02:34:01.666Z,17.14
2022-09-15T02:35:01.747Z,17.14
2022-09-15T02:36:01.637Z,17.13
2022-09-15T02:37:01.638Z,17.11
2022-09-15T02:38:01.608Z,17.11
2022-09-15T02:39:01.677Z,17.13
2022-09-15T02:40:01.720Z,17.13
2022-09-15T02:41:01.589Z,17.13
2022-09-15T02:42:01.582Z,17.11
2022-09-15T02:43:01.610Z,17.13
2022-09-15T02:44:01.606Z,17.13
2022-09-15T02:45:02.550Z,17.13
2022-09-15T02:46:01.554Z,17.14
2022-09-15T02:47:01.500Z,17.15
2022-09-15T02:48:01.524Z,17.15
2022-09-15T02:49:01.548Z,17.13
2022-09-15T02:50:02.462Z,17.14
2022-09-15T02:51:01.550Z,17.15
2022-09-15T02:52:01.491Z,17.14
2022-09-15T02:53:01.472Z,17.13
2022-09-15T02:54:01.471Z,17.15
2022-09-15T02:55:01.392Z,17.15
2022-09-15T02:56:01.370Z,17.15
2022-09-15T02:57:01.432Z,17.17
2022-09-15T02:58:01.401Z,17.17
2022-09-15T02:59:01.402Z,17.17
2022-09-15T03:00:01.344Z,17.15
2022-09-15T03:01:01.343Z,17.15
2022-09-15T03:02:01.374Z,17.17
2022-09-15T03:03:01.302Z,17.17
2022-09-15T03:04:01.336Z,17.15
2022-09-15T03:05:01.252Z,17.14
2022-09-15T03:06:01.263Z,17.14
2022-09-15T03:07:01.598Z,17.15
2022-09-15T03:08:01.223Z,17.14
2022-09-15T03:09:01.269Z,17.13
2022-09-15T03:10:01.273Z,17.13
2022-09-15T03:11:01.288Z,17.13
2022-09-15T03:12:22.198Z,17.11
2022-09-15T03:13:01.154Z,17.13
2022-09-15T03:14:01.168Z,17.13
2022-09-15T03:15:01.132Z,17.08
2022-09-15T03:16:01.184Z,17.08
2022-09-15T03:17:01.118Z,17.08
2022-09-15T03:18:01.085Z,17.07
2022-09-15T03:19:01.133Z,17.07
2022-09-15T03:20:01.075Z,17.07
2022-09-15T03:21:01.146Z,17.07
2022-09-15T03:22:01.076Z,17.08
2022-09-15T03:23:01.047Z,17.08
2022-09-15T03:24:01.097Z,17.08
2022-09-15T03:25:01.066Z,17.08
2022-09-15T03:26:01.089Z,17.08
2022-09-15T03:27:01.024Z,17.10
2022-09-15T03:28:00.958Z,17.11
2022-09-15T03:30:11.191Z,17.11
2022-09-15T03:31:11.315Z,17.10
2022-09-15T03:32:11.203Z,17.10
2022-09-15T03:33:11.127Z,17.10
2022-09-15T03:34:11.187Z,17.10
2022-09-15T03:35:11.180Z,17.08
2022-09-15T03:36:11.178Z,17.06
2022-09-15T03:37:11.127Z,17.06
2022-09-15T03:38:11.089Z,17.04
2022-09-15T03:39:11.047Z,17.06
2022-09-15T03:40:11.087Z,17.04
2022-09-15T03:41:11.108Z,17.04
2022-09-15T03:42:11.041Z,17.07
2022-09-15T03:43:14.278Z,17.06
2022-09-15T03:44:12.072Z,17.07
2022-09-15T03:45:11.038Z,17.07
2022-09-15T03:46:11.000Z,17.08
2022-09-15T03:47:10.969Z,17.08
2022-09-15T03:48:10.938Z,17.08
2022-09-15T03:49:10.920Z,17.08
2022-09-15T03:50:10.924Z,17.10
2022-09-15T04:03:27.498Z,17.18
2022-09-15T04:04:27.469Z,17.18
2022-09-15T04:05:27.460Z,17.18
2022-09-15T04:06:27.461Z,17.18
2022-09-15T04:07:27.438Z,17.18
2022-09-15T04:08:27.410Z,17.20
2022-09-15T04:09:27.416Z,17.22
2022-09-15T04:10:27.398Z,17.18
2022-09-15T04:11:27.403Z,17.20
2022-09-15T04:12:27.369Z,17.20
2022-09-15T04:13:28.799Z,17.20
2022-09-15T04:14:27.341Z,17.20
2022-09-15T04:15:27.342Z,17.18
2022-09-15T04:16:27.381Z,17.18
2022-09-15T04:17:27.310Z,17.18
2022-09-15T04:18:34.798Z,17.18
2022-09-15T04:19:27.287Z,17.20
2022-09-15T04:20:27.268Z,17.18
2022-09-15T04:21:27.258Z,17.20
2022-09-15T04:22:27.250Z,17.20
2022-09-15T04:23:27.229Z,17.20
2022-09-15T04:24:27.218Z,17.18
2022-09-15T04:25:27.219Z,17.17
2022-09-15T04:26:27.189Z,17.18
2022-09-15T04:27:27.195Z,17.18
2022-09-15T04:28:27.165Z,17.20
2022-09-15T04:29:27.155Z,17.20
2022-09-15T04:30:27.148Z,17.20
2022-09-15T04:31:27.200Z,17.20
2022-09-15T04:32:27.121Z,17.20
2022-09-15T04:33:27.105Z,17.22
2022-09-15T04:34:27.089Z,17.22
2022-09-15T04:35:28.071Z,17.22
2022-09-15T04:36:27.051Z,17.23
2022-09-15T04:37:27.053Z,17.23
2022-09-15T04:38:27.032Z,17.25
2022-09-15T04:39:27.022Z,17.23
2022-09-15T04:40:27.068Z,17.23
2022-09-15T04:41:27.005Z,17.25
2022-09-15T04:42:26.991Z,17.25
2022-09-15T04:43:26.980Z,17.26
2022-09-15T04:44:26.972Z,17.26
2022-09-15T04:45:26.978Z,17.25
2022-09-15T04:46:27.004Z,17.26
2022-09-15T04:47:26.947Z,17.26
2022-09-15T04:48:26.906Z,17.29
2022-09-15T04:49:26.895Z,17.29
2022-09-15T04:50:26.886Z,17.29
2022-09-15T04:51:26.908Z,17.29
2022-09-15T04:52:26.873Z,17.30
2022-09-15T04:53:26.845Z,17.29
2022-09-15T04:54:26.836Z,17.29
2022-09-15T04:55:26.805Z,17.30
2022-09-15T04:56:26.817Z,17.28
2022-09-15T04:57:26.804Z,17.29
2022-09-15T04:58:26.767Z,17.29
2022-09-15T04:59:26.766Z,17.30
2022-09-15T05:00:26.753Z,17.32
2022-09-15T05:01:27.794Z,17.32
2022-09-15T05:02:26.820Z,17.33
2022-09-15T05:03:26.728Z,17.32
2022-09-15T05:04:26.686Z,17.33
2022-09-15T05:05:26.677Z,17.33
2022-09-15T05:06:27.668Z,17.32
2022-09-15T05:07:26.685Z,17.29
2022-09-15T05:08:26.638Z,17.26
2022-09-15T05:09:27.630Z,17.25
2022-09-15T05:10:26.616Z,17.26
2022-09-15T05:11:26.599Z,17.28
2022-09-15T05:12:26.608Z,17.28
2022-09-15T05:13:26.590Z,17.26
2022-09-15T05:14:26.562Z,17.26
2022-09-15T05:15:26.569Z,17.28
2022-09-15T05:16:27.592Z,17.26
2022-09-15T05:17:26.927Z,17.28
2022-09-15T05:18:26.519Z,17.25
2022-09-15T05:19:26.508Z,17.25
2022-09-15T05:20:26.483Z,17.23
2022-09-15T05:21:26.499Z,17.22
2022-09-15T05:22:26.479Z,17.23
2022-09-15T05:23:26.482Z,17.22
2022-09-15T05:24:26.441Z,17.20
2022-09-15T05:25:26.432Z,17.23
2022-09-15T05:26:26.421Z,17.23
2022-09-15T05:27:27.414Z,17.22
2022-09-15T05:28:26.400Z,17.22
2022-09-15T05:29:26.382Z,17.23
2022-09-15T05:30:40.502Z,17.25
2022-09-15T05:31:27.446Z,17.23
2022-09-15T05:32:26.338Z,17.25
2022-09-15T05:33:26.352Z,17.23
2022-09-15T05:34:26.325Z,17.25
2022-09-15T05:35:26.292Z,17.25
2022-09-15T05:36:26.305Z,17.26
2022-09-15T05:37:26.282Z,17.26
2022-09-15T05:38:26.273Z,17.26
2022-09-15T05:39:26.256Z,17.26
2022-09-15T05:40:26.316Z,17.26
2022-09-15T05:41:26.226Z,17.28
2022-09-15T05:42:27.195Z,17.28
2022-09-15T05:43:26.216Z,17.26
2022-09-15T05:44:26.185Z,17.26
2022-09-15T05:45:26.165Z,17.28
2022-09-15T05:46:26.305Z,17.25
2022-09-15T05:47:26.136Z,17.25
2022-09-15T05:48:26.134Z,17.25
2022-09-15T05:49:26.117Z,17.25
2022-09-15T05:50:26.108Z,17.25
2022-09-15T05:51:26.090Z,17.26
2022-09-15T05:52:26.067Z,17.26
2022-09-15T05:53:26.080Z,17.26
2022-09-15T05:54:26.047Z,17.26
2022-09-15T05:55:26.048Z,17.25
2022-09-15T05:56:26.016Z,17.20
2022-09-15T05:57:26.029Z,17.20
2022-09-15T05:58:26.008Z,17.22
2022-09-15T05:59:25.998Z,17.22
2022-09-15T06:00:25.971Z,17.23
2022-09-15T06:01:26.017Z,17.25
2022-09-15T06:02:26.015Z,17.25
2022-09-15T06:03:30.621Z,17.25
2022-09-15T06:04:26.919Z,17.26
2022-09-15T06:05:25.910Z,17.26
2022-09-15T06:06:25.910Z,17.25
2022-09-15T06:07:25.880Z,17.23
2022-09-15T06:08:25.870Z,17.20
2022-09-15T06:09:25.884Z,17.20
2022-09-15T06:10:25.850Z,17.22
2022-09-15T06:11:25.830Z,17.22
2022-09-15T06:12:25.811Z,17.22
2022-09-15T06:13:26.821Z,17.23
2022-09-15T06:14:26.801Z,17.23
2022-09-15T06:15:25.783Z,17.23
2022-09-15T06:16:25.828Z,17.20
2022-09-15T06:17:25.755Z,17.20
2022-09-15T06:18:25.752Z,17.20
2022-09-15T06:19:25.734Z,17.18
2022-09-15T06:20:25.724Z,17.18
2022-09-15T06:21:25.703Z,17.18
2022-09-15T06:22:25.682Z,17.18
2022-09-15T06:23:25.713Z,17.20
2022-09-15T06:24:25.664Z,17.20
2022-09-15T06:25:25.644Z,17.22
2022-09-15T06:26:25.653Z,17.25
2022-09-15T06:27:25.623Z,17.26
2022-09-15T06:28:25.611Z,17.28
2022-09-15T06:29:25.616Z,17.29
2022-09-15T06:30:25.607Z,17.30
2022-09-15T06:31:25.671Z,17.30
2022-09-15T06:32:25.557Z,17.30
2022-09-15T06:33:25.555Z,17.30
2022-09-15T06:34:25.534Z,17.30
2022-09-15T06:35:25.516Z,17.32
2022-09-15T06:36:25.517Z,17.32
2022-09-15T06:37:25.495Z,17.35
2022-09-15T06:38:25.484Z,17.35
2022-09-15T06:39:25.493Z,17.38
2022-09-15T06:40:25.613Z,17.41
2022-09-15T06:41:25.446Z,17.41
2022-09-15T06:42:25.430Z,17.38
2022-09-15T06:43:25.428Z,17.40
2022-09-15T06:44:25.427Z,17.40
2022-09-15T06:45:25.398Z,17.43
2022-09-15T06:46:25.483Z,17.41
2022-09-15T06:47:25.381Z,17.44
2022-09-15T06:48:25.391Z,17.43
2022-09-15T06:49:25.348Z,17.46
2022-09-15T06:50:25.406Z,17.44
2022-09-15T06:51:25.328Z,17.44
2022-09-15T06:52:25.299Z,17.46
2022-09-15T06:53:25.320Z,17.46
2022-09-15T06:54:25.292Z,17.46
2022-09-15T06:55:26.259Z,17.48
2022-09-15T06:56:25.258Z,17.48
2022-09-15T06:57:25.249Z,17.50
2022-09-15T06:58:27.231Z,17.50
2022-09-15T06:59:25.211Z,17.53
2022-09-15T07:00:25.256Z,17.54
2022-09-15T07:01:25.191Z,17.54
2022-09-15T07:02:25.256Z,17.54
2022-09-15T07:03:25.290Z,17.55
2022-09-15T07:04:25.135Z,17.57
2022-09-15T07:05:25.132Z,17.59
2022-09-15T07:06:25.149Z,17.59
2022-09-15T07:07:25.112Z,17.57
2022-09-15T07:08:25.111Z,17.59
2022-09-15T07:09:25.091Z,17.62
2022-09-15T07:10:26.141Z,17.62
2022-09-15T07:11:25.053Z,17.59
2022-09-15T07:12:25.045Z,17.63
2022-09-15T07:13:25.053Z,17.62
2022-09-15T07:14:25.013Z,17.62
2022-09-15T07:15:25.023Z,17.59
2022-09-15T07:16:25.093Z,17.59
2022-09-15T07:17:24.975Z,17.55
2022-09-15T07:18:24.984Z,17.57
2022-09-15T07:19:24.956Z,17.62
2022-09-15T07:20:24.940Z,17.62
2022-09-15T07:21:25.926Z,17.69
2022-09-15T07:22:24.915Z,17.71
2022-09-15T07:23:24.916Z,17.73
2022-09-15T07:24:24.887Z,17.82
2022-09-15T07:25:24.890Z,17.87
2022-09-15T07:26:24.858Z,17.91
2022-09-15T07:27:24.847Z,17.94
2022-09-15T07:28:24.837Z,17.92
2022-09-15T07:29:24.878Z,17.94
2022-09-15T07:30:24.856Z,17.94
2022-09-15T07:31:24.825Z,17.97
2022-09-15T07:32:24.777Z,18.00
2022-09-15T07:33:24.772Z,17.92
2022-09-15T07:34:24.776Z,17.92
2022-09-15T07:35:24.748Z,17.95
2022-09-15T07:36:24.720Z,18.00
2022-09-15T07:37:24.730Z,18.04
2022-09-15T07:38:24.710Z,18.09
2022-09-15T07:39:24.713Z,18.13
2022-09-15T07:40:24.774Z,18.04
2022-09-15T07:41:24.669Z,18.03
2022-09-15T07:42:24.654Z,17.99
2022-09-15T07:43:24.651Z,17.95
2022-09-15T07:44:24.640Z,17.92
2022-09-15T07:45:24.649Z,17.92
2022-09-15T07:46:24.601Z,17.92
2022-09-15T07:47:24.595Z,17.95
2022-09-15T07:48:26.607Z,17.95
2022-09-15T07:49:24.571Z,17.94
2022-09-15T07:50:24.541Z,17.95
2022-09-15T07:51:24.535Z,17.95
2022-09-15T07:52:25.531Z,17.94
2022-09-15T07:53:24.513Z,17.92
2022-09-15T07:54:24.505Z,17.92
2022-09-15T07:55:24.490Z,17.89
2022-09-15T07:56:24.473Z,17.91
2022-09-15T07:57:25.451Z,17.88
2022-09-15T07:58:24.444Z,17.82
2022-09-15T07:59:24.454Z,17.87
2022-09-15T08:00:24.450Z,17.92
2022-09-15T08:01:24.488Z,17.97
2022-09-15T08:02:24.450Z,17.99
2022-09-15T08:03:24.414Z,18.02
2022-09-15T08:04:24.373Z,18.04
2022-09-15T08:05:24.352Z,18.06
2022-09-15T08:06:24.336Z,18.07
2022-09-15T08:07:24.325Z,18.06
2022-09-15T08:08:24.339Z,18.04
2022-09-15T08:09:24.349Z,18.04
2022-09-15T08:10:24.285Z,18.02
2022-09-15T08:11:24.278Z,18.00
2022-09-15T08:12:24.257Z,17.95
2022-09-15T08:13:24.261Z,17.95
2022-09-15T08:14:24.249Z,17.99
2022-09-15T08:15:24.236Z,18.02
2022-09-15T08:16:24.306Z,18.04
2022-09-15T08:17:24.197Z,18.07
2022-09-15T08:18:25.178Z,18.10
2022-09-15T08:19:24.207Z,18.09
2022-09-15T08:20:24.159Z,18.12
2022-09-15T08:21:24.136Z,18.17
2022-09-15T08:22:24.138Z,18.19
2022-09-15T08:23:25.129Z,18.22
2022-09-15T08:24:24.145Z,18.12
2022-09-15T08:25:24.088Z,18.13
2022-09-15T08:26:24.081Z,18.12
2022-09-15T08:27:24.071Z,18.19
2022-09-15T08:28:24.048Z,18.33
2022-09-15T08:29:24.074Z,18.40
2022-09-15T08:30:24.066Z,18.47
2022-09-15T08:31:24.436Z,18.46
2022-09-15T08:32:24.000Z,18.44
2022-09-15T08:33:23.987Z,18.42
2022-09-15T08:34:23.980Z,18.36
2022-09-15T08:35:23.950Z,18.28
2022-09-15T08:36:23.952Z,18.25
2022-09-15T08:37:23.934Z,18.27
2022-09-15T08:38:23.931Z,18.19
2022-09-15T08:39:23.922Z,18.17
2022-09-15T08:40:23.952Z,18.09
2022-09-15T08:41:23.883Z,18.10
2022-09-15T08:42:23.876Z,18.10
2022-09-15T08:43:23.861Z,18.13
2022-09-15T08:44:23.862Z,18.13
2022-09-15T08:45:23.833Z,18.13
2022-09-15T08:46:23.875Z,18.10
2022-09-15T08:47:24.804Z,18.15
2022-09-15T08:48:23.804Z,18.15
2022-09-15T08:49:47.508Z,18.18
2022-09-15T08:50:24.763Z,18.21
2022-09-15T08:51:23.767Z,18.19
2022-09-15T08:52:23.747Z,18.15
2022-09-15T08:53:24.726Z,18.13
2022-09-15T08:54:24.715Z,18.10
2022-09-15T08:55:23.709Z,18.06
2022-09-15T08:56:23.698Z,18.04
2022-09-15T08:57:23.680Z,18.02
2022-09-15T08:58:23.686Z,17.99
2022-09-15T08:59:23.638Z,17.95
2022-09-15T09:00:23.637Z,17.97
2022-09-15T09:01:23.654Z,17.89
2022-09-15T09:02:23.669Z,17.87
2022-09-15T09:03:23.598Z,17.84
2022-09-15T09:04:23.599Z,17.79
2022-09-15T09:05:23.578Z,17.76
2022-09-15T09:06:23.558Z,17.78
2022-09-15T09:07:23.570Z,17.81
2022-09-15T09:08:23.549Z,17.82
2022-09-15T09:09:23.518Z,17.78
2022-09-15T09:10:23.509Z,17.67
2022-09-15T09:11:23.491Z,17.62
2022-09-15T09:12:23.508Z,17.53
2022-09-15T09:13:23.480Z,17.53
2022-09-15T09:14:23.450Z,17.51
2022-09-15T09:15:23.493Z,17.51
2022-09-15T09:16:23.479Z,17.51
2022-09-15T09:17:23.412Z,17.50
2022-09-15T09:18:23.421Z,17.54
2022-09-15T09:19:23.403Z,17.51
2022-09-15T09:20:23.381Z,17.51
2022-09-15T09:21:23.359Z,17.51
2022-09-15T09:22:23.363Z,17.54
2022-09-15T09:23:23.354Z,17.62
2022-09-15T09:24:23.332Z,17.63
2022-09-15T09:25:28.007Z,17.63
2022-09-15T09:26:24.313Z,17.62
2022-09-15T09:27:23.283Z,17.66
2022-09-15T09:28:23.286Z,17.67
2022-09-15T09:29:23.263Z,17.67
2022-09-15T09:30:23.267Z,17.69
2022-09-15T09:31:23.290Z,17.73
2022-09-15T09:32:23.224Z,17.73
2022-09-15T09:33:23.210Z,17.73
2022-09-15T09:34:23.204Z,17.69
2022-09-15T09:35:23.197Z,17.69
2022-09-15T09:36:23.174Z,17.67
2022-09-15T09:37:23.166Z,17.66
2022-09-15T09:38:23.165Z,17.66
2022-09-15T09:39:23.136Z,17.69
2022-09-15T09:40:23.160Z,17.74
2022-09-15T09:41:23.103Z,17.73
2022-09-15T09:42:23.110Z,17.76
2022-09-15T09:43:23.099Z,17.76
2022-09-15T09:44:23.075Z,17.79
2022-09-15T09:45:24.057Z,17.84
2022-09-15T09:46:23.127Z,17.88
2022-09-15T09:47:23.047Z,17.89
2022-09-15T10:03:38.364Z,17.44
2022-09-15T10:04:38.368Z,17.43
2022-09-15T10:05:38.326Z,17.44
2022-09-15T10:06:38.325Z,17.44
2022-09-15T10:07:38.306Z,17.46
2022-09-15T10:08:38.319Z,17.51
2022-09-15T10:09:38.276Z,17.62
2022-09-15T10:10:38.266Z,17.70
2022-09-15T10:11:38.245Z,17.70
2022-09-15T10:12:38.227Z,17.76
2022-09-15T10:13:38.254Z,17.84
2022-09-15T10:14:38.216Z,17.89
2022-09-15T10:15:38.207Z,17.99
2022-09-15T10:16:38.299Z,18.04
2022-09-15T10:17:39.168Z,18.02
2022-09-15T10:18:38.179Z,18.03
2022-09-15T10:19:38.166Z,17.99
2022-09-15T10:20:38.148Z,17.95
2022-09-15T10:21:39.118Z,17.92
2022-09-15T10:22:38.098Z,17.88
2022-09-15T10:23:38.130Z,17.85
2022-09-15T10:24:38.089Z,17.81
2022-09-15T10:25:58.480Z,17.71
2022-09-15T10:26:39.060Z,17.71
2022-09-15T10:27:38.039Z,17.74
2022-09-15T10:28:38.040Z,17.76
2022-09-15T10:29:38.034Z,17.78
2022-09-15T10:30:38.018Z,17.81
2022-09-15T10:31:39.038Z,17.82
2022-09-15T10:32:38.090Z,17.79
2022-09-15T10:33:37.979Z,17.76
2022-09-15T10:34:37.952Z,17.84
2022-09-15T10:35:37.934Z,17.89
2022-09-15T10:36:37.942Z,17.87
2022-09-15T10:37:37.922Z,17.91
2022-09-15T10:38:37.910Z,17.95
2022-09-15T10:39:37.879Z,18.00
2022-09-15T10:40:37.897Z,17.95
2022-09-15T10:41:37.862Z,17.97
2022-09-15T10:42:37.861Z,17.97
2022-09-15T10:43:37.836Z,17.94
2022-09-15T10:44:37.838Z,17.99
2022-09-15T10:45:37.898Z,18.03
2022-09-15T10:46:39.475Z,18.07
2022-09-15T10:47:37.803Z,18.18
2022-09-15T10:48:38.787Z,18.24
2022-09-15T10:49:37.775Z,18.22
2022-09-15T10:50:37.744Z,18.25
2022-09-15T10:51:37.733Z,18.31
2022-09-15T10:52:37.737Z,18.34
2022-09-15T10:53:37.726Z,18.19
2022-09-15T10:54:37.715Z,18.15
2022-09-15T10:55:52.251Z,18.15
2022-09-15T10:56:38.666Z,18.15
2022-09-15T10:57:38.657Z,18.10
2022-09-15T10:58:39.885Z,18.09
2022-09-15T10:59:37.651Z,18.10
2022-09-15T11:00:37.690Z,18.12
2022-09-15T11:01:37.596Z,18.09
2022-09-15T11:02:37.585Z,18.03
2022-09-15T11:03:37.567Z,17.94
2022-09-15T11:04:37.577Z,17.79
2022-09-15T11:05:37.547Z,17.76
2022-09-15T11:06:37.545Z,17.82
2022-09-15T11:07:37.536Z,17.84
2022-09-15T11:08:37.539Z,17.88
2022-09-15T11:09:37.518Z,17.92
2022-09-15T11:10:37.506Z,17.92
2022-09-15T11:11:37.469Z,17.89
2022-09-15T11:12:37.511Z,17.87
2022-09-15T11:13:37.469Z,17.82
2022-09-15T11:14:37.455Z,17.81
2022-09-15T11:15:37.422Z,17.79
2022-09-15T11:16:37.470Z,17.74
2022-09-15T11:17:37.402Z,17.70
2022-09-15T11:18:37.409Z,17.70
2022-09-15T11:19:37.380Z,17.73
2022-09-15T11:20:37.372Z,17.73
2022-09-15T11:21:37.361Z,17.74
2022-09-15T11:22:37.341Z,17.84
2022-09-15T11:23:37.321Z,17.91
2022-09-15T11:24:37.322Z,17.99
2022-09-15T11:25:37.324Z,18.03
2022-09-15T11:26:37.292Z,18.03
2022-09-15T11:27:37.286Z,18.06
2022-09-15T11:28:37.272Z,18.12
2022-09-15T11:29:37.254Z,18.12
2022-09-15T11:30:37.243Z,18.15
2022-09-15T11:31:37.397Z,18.15
2022-09-15T11:32:37.204Z,18.18
2022-09-15T11:33:37.202Z,18.15
2022-09-15T11:34:37.206Z,18.22
2022-09-15T11:35:37.185Z,18.29
2022-09-15T11:36:37.176Z,18.36
2022-09-15T11:37:37.155Z,18.36
2022-09-15T11:38:37.162Z,18.34
2022-09-15T11:39:37.118Z,18.37
2022-09-15T11:40:37.115Z,18.34
2022-09-15T11:41:37.106Z,18.34
2022-09-15T11:42:37.084Z,18.27
2022-09-15T11:43:37.088Z,18.24
2022-09-15T11:44:37.058Z,18.19
2022-09-15T11:45:37.056Z,18.13
2022-09-15T11:46:37.105Z,18.12
2022-09-15T11:47:38.016Z,18.03
2022-09-15T11:48:37.009Z,17.99
2022-09-15T11:49:37.025Z,17.95
2022-09-15T11:50:37.005Z,17.91
2022-09-15T11:51:36.969Z,17.91
2022-09-15T11:52:36.968Z,17.91
2022-09-15T11:53:36.950Z,17.92
2022-09-15T11:54:36.939Z,17.95
2022-09-15T11:55:36.908Z,18.00
2022-09-15T11:56:36.909Z,18.03
2022-09-15T11:57:36.910Z,18.10
2022-09-15T11:58:36.881Z,18.15
2022-09-15T11:59:36.860Z,18.17
2022-09-15T12:00:36.859Z,18.19
2022-09-15T12:01:36.944Z,18.27
2022-09-15T12:02:36.879Z,18.34
2022-09-15T12:03:36.817Z,18.37
2022-09-15T12:04:36.803Z,18.40
2022-09-15T12:05:36.778Z,18.36
2022-09-15T12:06:36.774Z,18.27
2022-09-15T12:07:36.752Z,18.09
2022-09-15T12:08:36.742Z,18.00
2022-09-15T12:09:36.753Z,18.04
2022-09-15T12:10:37.712Z,18.07
2022-09-15T12:11:36.711Z,18.10
2022-09-15T12:12:36.703Z,18.09
2022-09-15T12:13:36.684Z,18.03
2022-09-15T12:14:36.690Z,17.99
2022-09-15T12:15:36.754Z,17.99
2022-09-15T12:16:36.653Z,17.94
2022-09-15T12:17:37.625Z,17.88
2022-09-15T12:18:40.772Z,17.88
2022-09-15T12:19:37.626Z,17.87
2022-09-15T12:20:38.614Z,17.79
2022-09-15T12:21:36.565Z,17.81
2022-09-15T12:22:37.565Z,17.74
2022-09-15T12:23:36.545Z,17.73
2022-09-15T12:24:37.544Z,17.73
2022-09-15T12:25:37.516Z,17.69
2022-09-15T12:26:36.555Z,17.64
2022-09-15T12:27:37.493Z,17.64
2022-09-15T12:28:36.508Z,17.63
2022-09-15T12:29:41.161Z,17.59
2022-09-15T12:30:36.464Z,17.57
2022-09-15T12:31:36.493Z,17.55
2022-09-15T12:32:36.456Z,17.50
2022-09-15T12:33:36.417Z,17.48
2022-09-15T12:34:36.421Z,17.47
2022-09-15T12:35:36.398Z,17.47
2022-09-15T12:36:36.391Z,17.43
2022-09-15T12:37:36.388Z,17.36
2022-09-15T12:38:36.368Z,17.38
2022-09-15T12:39:36.348Z,17.36
2022-09-15T12:40:36.403Z,17.32
2022-09-15T12:41:36.329Z,17.30
2022-09-15T12:42:36.310Z,17.33
2022-09-15T12:43:36.306Z,17.33
2022-09-15T12:44:36.292Z,17.40
2022-09-15T12:45:36.257Z,17.46
2022-09-15T12:46:36.325Z,17.48
2022-09-15T12:47:36.241Z,17.47
2022-09-15T12:48:36.249Z,17.50
2022-09-15T12:49:36.261Z,17.51
2022-09-15T12:50:36.197Z,17.51
2022-09-15T12:51:37.193Z,17.50
2022-09-15T12:52:36.181Z,17.50
2022-09-15T12:53:36.184Z,17.54
2022-09-15T12:54:36.187Z,17.54
2022-09-15T12:55:36.137Z,17.51
2022-09-15T12:56:36.144Z,17.44
2022-09-15T12:57:36.129Z,17.46
2022-09-15T12:58:36.113Z,17.43
2022-09-15T12:59:37.105Z,17.46
2022-09-15T13:00:36.083Z,17.43
2022-09-15T13:01:36.117Z,17.47
2022-09-15T13:02:36.213Z,17.46
2022-09-15T13:03:36.093Z,17.38
2022-09-15T13:04:36.035Z,17.40
2022-09-15T13:05:36.018Z,17.35
2022-09-15T13:06:35.992Z,17.36
2022-09-15T13:07:35.985Z,17.33
2022-09-15T13:08:35.988Z,17.29
2022-09-15T13:09:35.955Z,17.22
2022-09-15T13:10:35.965Z,17.25
2022-09-15T13:11:37.331Z,17.26
2022-09-15T13:12:35.932Z,17.23
2022-09-15T13:13:35.909Z,17.20
2022-09-15T13:14:35.887Z,17.17
2022-09-15T13:15:35.921Z,17.08
2022-09-15T13:16:36.872Z,17.06
2022-09-15T13:17:36.876Z,17.00
2022-09-15T13:18:35.839Z,16.96
2022-09-15T13:19:35.834Z,16.95
2022-09-15T13:20:35.833Z,16.92